Latest Weather Observations for Narrabri

IDN60801

Issued at 3:35 am EDT Wednesday 22 October 2014 (issued every 30 minutes, with the page automatically refreshed every 10 minutes)

About weather observations | Map of weather stations | Latest weather observations for NSW | Other Formats
Station Details ID: 054038 Name: NARRABRI AIRPORT AWS Lat: -30.32 Lon: 149.83 Height: 229.02 m
Data from the previous 72 hours. | See also: Recent months at Narrabri
Date/Time
EDT
Temp
°C
App
Temp
°C
Dew
Point
Rel
Hum
%
Delta-T
°C
Wind Press
QNH
hPa
Press
MSL
hPa
Rain
since 9 am
mm
Dir
 
Spd
km/h
Gust
km/h
Spd
kts
Gust
kts
22/03:30am 14.2 12.0 7.9 66 3.1 SE 9 13 5 7 1024.2 1023.5 0.0
22/03:00am 14.7 12.5 8.0 64 3.4 SE 9 15 5 8 1024.4 1023.7 0.0
22/02:30am 15.1 11.8 7.9 62 3.6 SSE 15 24 8 13 1024.6 1023.9 0.0
22/02:00am 15.6 11.4 8.1 61 3.8 SSE 20 30 11 16 1024.5 1023.8 0.0
22/01:30am 16.1 14.0 8.1 59 4.1 ENE 9 17 5 9 1025.1 1024.5 0.0
22/01:00am 16.6 12.0 8.3 58 4.2 SSE 22 33 12 18 1024.9 1024.3 0.0
22/12:30am 17.2 12.7 8.4 56 4.6 SSE 22 32 12 17 1024.9 1024.3 0.0
22/12:00am 17.8 12.9 8.4 54 4.9 SSE 24 35 13 19 1024.8 1024.2 0.0
 
Date/Time
EDT
Temp
°C
App
Temp
°C
Dew
Point
Rel
Hum
%
Delta-T
°C
Wind Press
QNH
hPa
Press
MSL
hPa
Rain
since 9 am
mm
Dir
 
Spd
km/h
Gust
km/h
Spd
kts
Gust
kts
21/11:30pm 18.3 13.0 8.3 52 5.2 SSE 26 35 14 19 1025.0 1024.4 0.0
21/11:00pm 18.7 13.8 8.4 51 5.4 SSE 24 35 13 19 1025.0 1024.4 0.0
21/10:30pm 19.2 13.8 8.2 49 5.7 SSE 26 39 14 21 1025.0 1024.4 0.0
21/10:00pm 20.1 15.2 8.4 47 6.1 SSE 24 32 13 17 1025.1 1024.5 0.0
21/09:30pm 21.0 16.1 8.6 45 6.6 SE 24 35 13 19 1024.7 1024.1 0.0
21/09:00pm 22.3 17.4 8.4 41 7.4 SE 24 33 13 18 1024.4 1023.7 0.0
21/08:30pm 23.7 19.1 8.2 37 8.3 SE 22 33 12 18 1024.0 1023.3 0.0
21/08:00pm 24.5 21.2 8.0 35 8.8 SE 15 20 8 11 1023.7 1023.0 0.0
21/07:30pm 25.2 22.2 7.8 33 9.3 SSE 13 19 7 10 1023.3 1022.6 0.0
21/07:00pm 26.6 22.4 7.6 30 10.2 SSE 19 28 10 15 1023.1 1022.4 0.0
21/06:30pm 27.5 23.8 7.9 29 10.7 SSE 17 22 9 12 1023.0 1022.3 0.0
21/06:00pm 28.1 24.3 7.4 27 11.2 SE 17 28 9 15 1022.8 1022.1 0.0
21/05:30pm 28.7 25.0 7.9 27 11.4 SSE 17 28 9 15 1022.7 1022.0 0.0
21/05:00pm 29.1 25.5 8.2 27 11.5 SSE 17 26 9 14 1022.8 1022.1 0.0
21/04:30pm 29.2 25.3 8.8 28 11.4 SSE 19 32 10 17 1022.8 1022.1 0.0
21/04:00pm 29.0 26.4 9.2 29 11.1 SSE 13 26 7 14 1023.1 1022.4 0.0
21/03:30pm 29.2 25.5 10.3 31 10.8 S 20 28 11 15 1023.4 1022.7 0.0
21/03:00pm 28.8 26.4 10.0 31 10.6 SSE 13 24 7 13 1023.9 1023.2 0.0
21/02:30pm 28.0 25.4 9.3 31 10.5 ESE 13 24 7 13 1024.5 1023.8 0.0
21/02:00pm 28.1 26.9 10.3 33 10.1 ENE 7 15 4 8 1024.9 1024.3 0.0
21/01:30pm 27.0 24.3 10.2 35 9.5 S 15 22 8 12 1025.6 1024.9 0.0
21/01:00pm 27.2 25.8 10.8 36 9.3 S 9 19 5 10 1026.1 1025.4 0.0
21/12:30pm 25.7 23.7 10.3 38 8.7 WSW 11 17 6 9 1026.5 1025.8 0.0
21/12:00pm 25.5 23.2 10.5 39 8.4 WSW 13 17 7 9 1027.2 1026.5 0.0
21/11:30am 24.5 23.3 10.4 41 7.8 W 7 19 4 10 1027.6 1026.9 0.0
21/11:00am 23.8 22.0 10.8 44 7.3 SW 11 17 6 9 1027.9 1027.2 0.0
21/10:30am 22.5 20.6 10.6 47 6.6 SW 11 19 6 10 1028.1 1027.4 0.0
21/10:00am 22.0 20.6 10.8 49 6.2 SSW 9 15 5 8 1028.2 1027.5 0.0
21/09:30am 20.8 18.9 10.6 52 5.6 SSE 11 17 6 9 1028.3 1027.6 0.0
21/09:00am 19.4 17.0 10.1 55 5.0 SE 13 19 7 10 1028.2 1027.5 0.0
21/08:30am 18.2 16.2 10.1 59 4.4 SSE 11 19 6 10 1027.8 1027.1 0.0
21/08:00am 16.8 14.5 10.4 66 3.4 SSE 13 24 7 13 1027.7 1027.0 0.0
21/07:30am 15.5 12.3 10.1 70 2.9 SSE 17 24 9 13 1027.4 1026.7 0.0
21/07:00am 14.5 11.0 10.1 75 2.3 SSE 19 24 10 13 1026.8 1026.1 0.0
21/06:30am 14.2 10.6 10.0 76 2.2 SSE 19 24 10 13 1026.4 1025.7 0.0
21/06:00am 14.6 10.5 10.0 74 2.4 SSE 22 32 12 17 1025.9 1025.2 0.0
21/05:30am 14.7 10.9 9.9 73 2.5 SE 20 28 11 15 1025.3 1024.7 0.0
21/05:00am 14.9 11.3 9.9 72 2.6 SSE 19 28 10 15 1025.1 1024.5 0.0
21/04:30am 15.3 11.5 9.7 69 2.9 SSE 20 28 11 15 1025.0 1024.4 0.0
21/04:00am 15.7 11.8 9.6 67 3.2 SSE 20 30 11 16 1024.8 1024.2 0.0
21/03:30am 15.9 12.0 9.6 66 3.3 SSE 20 28 11 15 1024.6 1023.9 0.0
21/03:00am 16.5 12.7 9.7 64 3.6 SSE 20 28 11 15 1024.5 1023.8 0.0
21/02:30am 16.8 12.6 9.7 63 3.8 SSE 22 33 12 18 1024.4 1023.7 0.0
21/02:00am 16.9 12.0 9.8 63 3.8 SSE 26 32 14 17 1024.4 1023.7 0.0
21/01:30am 17.2 12.7 9.9 62 3.9 SSE 24 39 13 21 1024.4 1023.7 0.0
21/01:00am 17.7 12.8 9.8 60 4.2 SSE 26 33 14 18 1024.5 1023.8 0.0
21/12:30am 18.3 13.8 9.9 58 4.5 SSE 24 39 13 21 1024.6 1023.9 0.0
21/12:00am 18.7 13.8 10.0 57 4.7 SSE 26 37 14 20 1024.5 1023.8 0.0
 
Date/Time
EDT
Temp
°C
App
Temp
°C
Dew
Point
Rel
Hum
%
Delta-T
°C
Wind Press
QNH
hPa
Press
MSL
hPa
Rain
since 9 am
mm
Dir
 
Spd
km/h
Gust
km/h
Spd
kts
Gust
kts
20/11:30pm 19.2 14.7 9.9 55 5.0 SSE 24 35 13 19 1024.6 1023.9 0.0
20/11:00pm 19.7 14.5 10.1 54 5.2 SSE 28 43 15 23 1024.1 1023.4 0.0
20/10:34pm 20.2 14.3 10.3 53 5.4 SSE 32 50 17 27 1023.7 1023.0 0.0
20/10:30pm 20.2 14.3 10.3 53 5.4 SSE 32 43 17 23 1023.7 1023.0 0.0
20/10:00pm 20.7 15.1 10.2 51 5.7 SSE 30 43 16 23 1023.7 1023.0 0.0
20/09:30pm 21.3 16.1 10.2 49 6.1 SSE 28 37 15 20 1023.7 1023.0 0.0
20/09:00pm 22.1 16.5 10.3 47 6.5 SSE 30 46 16 25 1023.2 1022.5 0.0
20/08:55pm 22.3 17.2 10.5 47 6.5 SSE 28 46 15 25 1023.2 1022.5 0.0
20/08:30pm 23.2 18.0 10.3 44 7.2 SSE 28 37 15 20 1022.8 1022.1 0.0
20/08:00pm 24.5 19.9 9.6 39 8.2 SE 24 43 13 23 1022.6 1021.9 0.0
20/07:30pm 25.8 21.0 8.8 34 9.3 SSE 24 35 13 19 1022.1 1021.4 0.0
20/07:00pm 27.1 20.9 8.0 30 10.4 SSE 30 43 16 23 1021.6 1020.9 0.0
20/06:33pm 28.6 22.9 8.3 28 11.2 SSE 28 46 15 25 1021.1 1020.4 0.0
20/06:30pm 28.8 22.6 7.9 27 11.5 SSE 30 46 16 25 1021.1 1020.4 0.0
20/06:24pm 29.1 23.2 7.6 26 11.7 SSE 28 46 15 25 1021.0 1020.3 0.0
20/06:00pm 31.3 26.6 3.4 17 14.3 SE 17 26 9 14 1020.4 1019.7 0.0
20/05:30pm 31.5 26.9 3.5 17 14.5 SE 17 24 9 13 1020.4 1019.7 0.0
20/05:00pm 32.1 27.4 3.1 16 14.9 SSE 17 24 9 13 1020.3 1019.6 0.0
20/04:30pm 32.5 27.6 4.3 17 14.9 SSE 19 24 10 13 1020.4 1019.7 0.0
20/04:00pm 32.3 27.4 4.2 17 14.7 SSE 19 26 10 14 1020.6 1019.9 0.0
20/03:30pm 32.5 28.4 4.3 17 14.9 SE 15 32 8 17 1021.1 1020.4 0.0
20/03:00pm 32.3 28.2 4.2 17 14.7 SE 15 30 8 16 1021.5 1020.8 0.0
20/02:30pm 32.6 29.6 6.0 19 14.4 S 11 24 6 13 1021.9 1021.2 0.0
20/02:00pm 31.3 28.5 7.1 22 13.2 WSW 11 22 6 12 1022.4 1021.7 0.0
20/01:30pm 30.6 28.1 6.5 22 13.0 SW 9 20 5 11 1023.2 1022.5 0.0
20/01:00pm 29.8 26.4 5.8 22 12.7 ESE 13 22 7 12 1023.5 1022.8 0.0
20/12:30pm 29.0 25.7 6.4 24 12.1 SSW 13 24 7 13 1024.1 1023.4 0.0
20/12:00pm 28.7 27.0 8.4 28 11.2 N 7 13 4 7 1024.7 1024.1 0.0
20/11:30am 27.9 25.4 8.2 29 10.8 W 11 19 6 10 1025.2 1024.6 0.0
20/11:00am 26.9 24.8 8.4 31 10.1 N 9 19 5 10 1025.7 1025.0 0.0
20/10:30am 25.8 21.6 8.3 33 9.5 N 20 26 11 14 1025.9 1025.2 0.0
20/10:00am 24.9 20.9 9.2 37 8.6 N 20 26 11 14 1025.9 1025.2 0.0
20/09:30am 23.7 18.7 9.7 41 7.7 N 26 32 14 17 1025.9 1025.2 0.0
20/09:00am 23.5 19.5 9.1 40 7.8 N 20 28 11 15 1025.8 1025.1 0.0
20/08:30am 22.8 18.1 9.2 42 7.4 N 24 33 13 18 1025.6 1024.9 0.0
20/08:00am 21.6 17.5 8.8 44 6.8 N 20 32 11 17 1025.1 1024.5 0.0
20/07:42am 20.8 17.5 9.7 49 6.0 N 17 22 9 12 1025.1 1024.5 0.0
20/07:30am 15.8 14.9 7.6 58 4.1 WSW 2 9 1 5 1025.0 1024.4 0.0
20/07:00am 13.8 11.3 6.7 62 3.5 S 9 11 5 6 1024.6 1023.9 0.0
20/06:30am 11.9 9.6 5.5 65 3.0 S 7 9 4 5 1024.2 1023.5 0.0
20/06:00am 11.8 9.3 5.0 63 3.1 S 7 7 4 4 1023.9 1023.2 0.0
20/05:30am 11.9 10.4 4.9 62 3.2 SSE 2 9 1 5 1023.4 1022.7 0.0
20/05:00am 11.7 10.3 5.6 66 2.9 ESE 2 6 1 3 1023.2 1022.5 0.0
20/04:30am 11.7 10.3 5.3 65 3.0 WSW 2 6 1 3 1022.9 1022.2 0.0
20/04:00am 12.1 11.0 5.0 62 3.3 CALM 0 0 0 0 1023.0 1022.3 0.0
20/03:30am 13.4 11.1 4.8 56 4.0 E 6 9 3 5 1023.0 1022.3 0.0
20/03:00am 16.4 13.6 5.1 47 5.4 E 9 15 5 8 1023.2 1022.5 0.0
20/02:30am 16.5 12.9 5.2 47 5.5 E 13 17 7 9 1023.5 1022.8 0.0
20/02:00am 15.8 11.6 5.7 51 4.9 E 17 22 9 12 1023.7 1023.0 0.0
20/01:30am 14.7 12.0 5.5 54 4.4 E 9 11 5 6 1024.0 1023.3 0.0
20/01:00am 13.3 11.8 5.0 57 3.9 SE 2 9 1 5 1024.1 1023.4 0.0
20/12:30am 15.1 14.0 5.0 51 4.8 CALM 0 0 0 0 1024.3 1023.6 0.0
20/12:00am 16.4 14.2 5.4 48 5.3 SSE 6 9 3 5 1024.2 1023.5 0.0
 
Date/Time
EDT
Temp
°C
App
Temp
°C
Dew
Point
Rel
Hum
%
Delta-T
°C
Wind Press
QNH
hPa
Press
MSL
hPa
Rain
since 9 am
mm
Dir
 
Spd
km/h
Gust
km/h
Spd
kts
Gust
kts
19/11:30pm 16.2 14.6 4.3 45 5.6 SSE 2 6 1 3 1024.2 1023.5 0.0
19/11:00pm 18.1 16.0 3.9 39 6.7 SE 4 11 2 6 1024.2 1023.5 0.0
19/10:30pm 20.0 16.1 5.3 38 7.3 E 15 19 8 10 1024.0 1023.3 0.0
19/10:00pm 20.1 17.0 5.4 38 7.3 E 11 15 6 8 1024.1 1023.4 0.0
19/09:30pm 19.0 16.1 4.4 38 7.1 E 9 13 5 7 1023.9 1023.2 0.0
19/09:00pm 18.9 15.2 4.3 38 7.0 ENE 13 13 7 7 1023.6 1022.9 0.0
19/08:59pm 18.9 15.2 4.3 38 7.1 ENE 13 13 7 7 1023.6 1022.9 0.0
19/08:30pm 23.9 20.9 4.3 28 9.8 ESE 9 11 5 6 1023.2 1022.5 0.0
19/08:00pm 24.1 21.2 4.5 28 9.8 ESE 9 13 5 7 1023.0 1022.3 0.0
19/07:30pm 24.6 21.8 3.3 25 10.5 SE 7 9 4 5 1022.7 1022.0 0.0
19/07:00pm 26.5 23.7 3.1 22 11.6 SE 7 11 4 6 1022.4 1021.7 0.0
19/06:30pm 27.7 24.1 2.7 20 12.5 SE 11 15 6 8 1022.3 1021.6 0.0
19/06:00pm 28.4 24.9 3.3 20 12.6 SSE 11 17 6 9 1022.1 1021.4 0.0
19/05:30pm 28.4 25.0 1.8 18 13.1 SSE 9 19 5 10 1022.0 1021.3 0.0
19/05:00pm 29.0 25.7 2.3 18 13.3 WSW 9 17 5 9 1021.9 1021.2 0.0
19/04:30pm 28.8 25.3 3.6 20 12.8 WSW 11 19 6 10 1022.1 1021.4 0.0
19/04:00pm 28.7 25.8 4.9 22 12.4 W 9 15 5 8 1022.3 1021.6 0.0
19/03:30pm 28.5 25.4 5.4 23 12.1 SW 11 19 6 10 1022.7 1022.0 0.0
19/03:00pm 28.1 25.1 6.2 25 11.6 SW 11 20 6 11 1023.3 1022.6 0.0
19/02:30pm 27.4 24.6 5.1 24 11.6 WSW 9 15 5 8 1023.9 1023.2 0.0
19/02:00pm 26.9 23.9 5.8 26 11.0 W 11 17 6 9 1024.6 1023.9 0.0
19/01:30pm 27.6 24.6 7.5 28 10.9 NNW 13 19 7 10 1025.1 1024.5 0.0
19/01:00pm 26.1 22.8 6.2 28 10.4 NW 13 20 7 11 1025.7 1025.0 0.0
19/12:30pm 26.1 22.6 7.2 30 10.1 N 15 22 8 12 1026.2 1025.5 0.0
19/12:00pm 24.6 21.9 7.3 33 9.1 N 11 19 6 10 1026.8 1026.1 0.0
19/11:30am 23.9 20.8 7.1 34 8.8 NNW 13 24 7 13 1027.3 1026.6 0.0
19/11:00am 23.6 19.5 8.5 38 8.1 N 20 28 11 15 1027.8 1027.1 0.0
19/10:30am 22.1 19.6 8.2 41 7.4 NW 11 17 6 9 1028.3 1027.6 0.0
19/10:00am 21.4 19.3 8.3 43 6.9 NNE 9 13 5 7 1028.4 1027.7 0.0
19/09:30am 19.4 17.8 7.8 47 6.0 N 6 13 3 7 1028.7 1028.1 0.0
19/09:00am 18.2 15.6 7.6 50 5.4 S 11 15 6 8 1028.5 1027.8 0.0
19/08:30am 16.9 15.1 7.8 55 4.6 SSW 7 11 4 6 1028.2 1027.5 0.0
19/08:00am 15.2 14.1 6.7 57 4.2 NNW 2 6 1 3 1027.7 1027.0 0.0
19/07:30am 12.6 10.9 5.8 63 3.2 NNE 4 6 2 3 1027.6 1026.9 0.0
19/07:00am 9.9 7.4 4.9 71 2.3 NE 7 9 4 5 1027.0 1026.3 0.0
19/06:30am 8.9 5.9 4.3 73 2.0 ENE 9 9 5 5 1026.5 1025.8 0.0
19/06:00am 9.5 6.2 4.5 71 2.2 E 11 13 6 7 1026.1 1025.4 0.0
19/05:30am 9.6 7.3 4.8 72 2.2 E 6 7 3 4 1025.7 1025.0 0.0
19/05:00am 9.5 7.9 4.5 71 2.2 N 2 9 1 5 1025.7 1025.0 0.0
19/04:30am 11.7 10.2 5.1 64 3.1 ESE 2 7 1 4 1025.2 1024.6 0.0
19/04:00am 13.9 10.2 6.5 61 3.6 SE 15 19 8 10 1025.2 1024.6 0.0

Other Formats:

Comma delimited format used in spreadsheet applications
http://www.bom.gov.au/fwo/IDN60801/IDN60801.95734.axf

JavaScript Object Notation format (JSON) in row-major order
http://www.bom.gov.au/fwo/IDN60801/IDN60801.95734.json